createdAt,value
2018-06-27T00:01:25.280Z,7.47
2018-06-27T00:03:53.645Z,5.97
2018-06-27T00:06:21.985Z,7.63
2018-06-27T00:08:50.390Z,6.90
2018-06-27T00:11:18.782Z,6.90
2018-06-27T00:13:47.168Z,5.97
2018-06-27T00:16:15.538Z,8.13
2018-06-27T00:18:43.894Z,6.50
2018-06-27T00:21:12.231Z,6.43
2018-06-27T00:23:40.299Z,6.40
2018-06-27T00:26:08.665Z,6.63
2018-06-27T00:28:36.792Z,6.57
2018-06-27T00:31:05.148Z,6.03
2018-06-27T00:33:33.493Z,5.90
2018-06-27T00:36:01.880Z,6.53
2018-06-27T00:38:30.275Z,6.20
2018-06-27T00:40:58.652Z,6.33
2018-06-27T00:43:27.026Z,6.73
2018-06-27T00:45:55.404Z,6.80
2018-06-27T00:48:23.796Z,6.10
2018-06-27T00:50:52.197Z,6.60
2018-06-27T00:53:24.991Z,6.33
2018-06-27T00:55:53.432Z,6.40
2018-06-27T00:58:21.815Z,6.27
2018-06-27T01:00:50.200Z,6.87
2018-06-27T01:03:18.577Z,6.93
2018-06-27T01:05:46.949Z,7.03
2018-06-27T01:08:15.329Z,7.20
2018-06-27T01:10:43.748Z,6.60
2018-06-27T01:13:12.245Z,7.87
2018-06-27T01:15:40.571Z,7.57
2018-06-27T01:18:08.927Z,6.50
2018-06-27T01:20:37.307Z,7.23
2018-06-27T01:23:05.791Z,7.50
2018-06-27T01:25:34.169Z,7.37
2018-06-27T01:28:02.545Z,7.07
2018-06-27T01:30:30.965Z,7.70
2018-06-27T01:32:59.352Z,7.10
2018-06-27T01:35:27.702Z,7.17
2018-06-27T01:37:56.079Z,8.03
2018-06-27T01:40:24.411Z,6.40
2018-06-27T01:42:52.774Z,8.33
2018-06-27T01:45:21.120Z,7.17
2018-06-27T01:47:49.828Z,6.77
2018-06-27T01:50:18.221Z,8.13
2018-06-27T01:52:46.576Z,6.57
2018-06-27T01:55:14.951Z,6.93
2018-06-27T01:57:43.284Z,6.83
2018-06-27T02:00:11.630Z,7.23
2018-06-27T02:02:39.705Z,7.80
2018-06-27T02:05:07.773Z,6.97
2018-06-27T02:07:36.217Z,6.83
2018-06-27T02:10:04.584Z,7.53
2018-06-27T02:12:32.951Z,6.90
2018-06-27T02:15:01.316Z,6.10
2018-06-27T02:17:29.647Z,6.83
2018-06-27T02:19:58.039Z,6.90
2018-06-27T02:22:26.128Z,6.67
2018-06-27T02:24:54.238Z,6.50
2018-06-27T02:27:22.632Z,7.60
2018-06-27T02:29:51.017Z,6.60
2018-06-27T02:32:19.408Z,7.07
2018-06-27T02:34:47.783Z,6.53
2018-06-27T02:37:16.161Z,5.97
2018-06-27T02:39:44.530Z,7.60
2018-06-27T02:42:12.898Z,7.90
2018-06-27T02:44:41.274Z,7.20
2018-06-27T02:47:09.693Z,7.23
2018-06-27T02:49:38.063Z,7.57
2018-06-27T02:52:06.402Z,7.00
2018-06-27T02:54:34.763Z,6.97
2018-06-27T02:57:03.122Z,7.30
2018-06-27T02:59:31.523Z,7.57
2018-06-27T03:01:59.914Z,6.67
2018-06-27T03:04:28.303Z,7.57
2018-06-27T03:06:56.667Z,8.10
2018-06-27T03:09:25.465Z,7.10
2018-06-27T03:11:53.794Z,6.10
2018-06-27T03:14:22.146Z,6.80
2018-06-27T03:16:50.221Z,6.80
2018-06-27T03:19:18.300Z,7.90
2018-06-27T03:21:46.670Z,7.10
2018-06-27T03:24:14.732Z,6.37
2018-06-27T03:26:43.143Z,8.33
2018-06-27T03:29:11.559Z,7.07
2018-06-27T03:31:39.896Z,8.43
2018-06-27T03:34:08.318Z,6.87
2018-06-27T03:36:36.754Z,7.43
2018-06-27T03:39:07.587Z,6.87
2018-06-27T03:41:35.938Z,7.07
2018-06-27T03:44:04.017Z,7.03
2018-06-27T03:46:32.412Z,6.60
2018-06-27T03:49:00.800Z,7.03
2018-06-27T03:51:29.175Z,7.20
2018-06-27T03:53:57.535Z,7.20
2018-06-27T03:56:26.372Z,7.03
2018-06-27T03:58:54.782Z,6.67
2018-06-27T04:01:23.108Z,7.13
2018-06-27T04:03:51.577Z,7.20
2018-06-27T04:06:19.926Z,6.63
2018-06-27T04:08:48.005Z,6.70
2018-06-27T04:11:16.330Z,7.23
2018-06-27T04:13:44.730Z,6.97
2018-06-27T04:16:13.129Z,7.17
2018-06-27T04:18:41.205Z,7.23
2018-06-27T04:21:09.632Z,7.00
2018-06-27T04:23:38.002Z,7.33
2018-06-27T04:26:06.398Z,6.70
2018-06-27T04:28:34.779Z,7.37
2018-06-27T04:31:03.138Z,7.27
2018-06-27T04:33:31.536Z,7.17
2018-06-27T04:35:59.943Z,7.80
2018-06-27T04:38:28.041Z,7.20
2018-06-27T04:40:56.418Z,7.37
2018-06-27T04:43:24.794Z,7.93
2018-06-27T04:45:53.160Z,7.40
2018-06-27T04:48:21.604Z,7.13
2018-06-27T04:50:49.963Z,7.33
2018-06-27T04:53:18.320Z,7.37
2018-06-27T04:55:46.719Z,7.97
2018-06-27T04:58:15.082Z,7.27
2018-06-27T05:00:43.474Z,8.50
2018-06-27T05:03:11.828Z,7.30
2018-06-27T05:05:40.188Z,7.20
2018-06-27T05:08:08.531Z,7.53
2018-06-27T05:10:36.889Z,8.00
2018-06-27T05:13:05.226Z,7.70
2018-06-27T05:15:33.659Z,8.30
2018-06-27T05:18:02.001Z,7.53
2018-06-27T05:20:30.366Z,7.37
2018-06-27T05:22:58.731Z,7.20
2018-06-27T05:25:27.167Z,8.40
2018-06-27T05:27:55.561Z,7.20
2018-06-27T05:30:23.735Z,7.27
2018-06-27T05:32:51.795Z,8.20
2018-06-27T05:35:26.475Z,7.20
2018-06-27T05:37:54.845Z,8.00
2018-06-27T05:42:50.394Z,8.03
2018-06-27T05:45:18.785Z,7.73
2018-06-27T05:47:47.169Z,8.37
2018-06-27T05:50:15.548Z,8.37
2018-06-27T05:52:43.907Z,7.33
2018-06-27T05:55:12.301Z,7.73
2018-06-27T05:57:41.394Z,7.70
2018-06-27T06:00:12.091Z,7.83
2018-06-27T06:02:40.459Z,7.60
2018-06-27T06:05:08.918Z,7.27
2018-06-27T06:07:37.275Z,6.60
2018-06-27T06:10:05.697Z,7.90
2018-06-27T06:12:34.110Z,7.77
2018-06-27T06:15:02.508Z,6.27
2018-06-27T06:17:30.869Z,6.33
2018-06-27T06:19:59.253Z,7.10
2018-06-27T06:22:27.625Z,6.13
2018-06-27T06:24:56.009Z,6.97
2018-06-27T06:27:24.406Z,7.33
2018-06-27T06:29:52.757Z,8.77
2018-06-27T06:32:21.131Z,6.07
2018-06-27T06:34:49.492Z,7.37
2018-06-27T06:37:17.814Z,6.40
2018-06-27T06:39:46.219Z,6.87
2018-06-27T06:42:14.575Z,6.63
2018-06-27T06:44:43.014Z,8.30
2018-06-27T06:47:11.365Z,5.80
2018-06-27T06:49:39.722Z,8.10
2018-06-27T06:52:08.145Z,7.03
2018-06-27T06:54:36.519Z,6.83
2018-06-27T06:57:05.160Z,6.57
2018-06-27T06:59:33.219Z,6.53
2018-06-27T07:02:01.290Z,7.10
2018-06-27T07:04:29.368Z,7.10
2018-06-27T07:06:57.858Z,6.07
2018-06-27T07:09:26.225Z,7.67
2018-06-27T07:11:54.295Z,6.70
2018-06-27T07:14:22.925Z,6.40
2018-06-27T07:16:51.558Z,6.10
2018-06-27T07:19:19.641Z,6.20
2018-06-27T07:21:47.742Z,5.90
2018-06-27T07:24:16.093Z,6.97
2018-06-27T07:26:44.540Z,5.37
2018-06-27T07:29:12.900Z,5.77
2018-06-27T07:31:41.391Z,6.00
2018-06-27T07:34:09.751Z,6.53
2018-06-27T07:36:38.089Z,6.80
2018-06-27T07:39:09.010Z,6.20
2018-06-27T07:41:37.383Z,6.60
2018-06-27T07:44:05.739Z,6.27
2018-06-27T07:46:34.480Z,5.97
2018-06-27T07:49:02.815Z,5.33
2018-06-27T07:51:31.218Z,7.20
2018-06-27T07:53:59.629Z,7.13
2018-06-27T07:56:35.732Z,5.90
2018-06-27T07:59:08.153Z,5.20
2018-06-27T08:01:50.413Z,5.43
2018-06-27T08:04:22.527Z,4.97
2018-06-27T08:06:56.592Z,5.30
2018-06-27T08:09:26.799Z,6.87
2018-06-27T08:11:55.177Z,5.37
2018-06-27T08:14:29.132Z,7.60
2018-06-27T08:16:59.019Z,7.97
2018-06-27T08:19:37.594Z,5.53
2018-06-27T08:22:08.457Z,6.70
2018-06-27T08:24:37.146Z,5.67
2018-06-27T08:27:10.654Z,5.50
2018-06-27T08:29:44.109Z,6.17
2018-06-27T08:32:18.538Z,5.60
2018-06-27T08:34:46.931Z,5.47
2018-06-27T08:37:15.873Z,6.50
2018-06-27T08:42:34.908Z,5.80
2018-06-27T08:45:08.826Z,5.10
2018-06-27T08:47:40.468Z,5.30
2018-06-27T08:50:12.248Z,4.87
2018-06-27T08:52:40.722Z,5.80
2018-06-27T08:55:15.932Z,6.50
2018-06-27T08:57:51.336Z,7.83
2018-06-27T09:00:24.147Z,6.73
2018-06-27T09:02:59.639Z,6.23
2018-06-27T09:05:32.996Z,5.00
2018-06-27T09:08:06.838Z,5.93
2018-06-27T09:10:43.240Z,3.97
2018-06-27T09:13:17.675Z,5.13
2018-06-27T09:15:55.066Z,4.70
2018-06-27T09:18:23.597Z,5.53
2018-06-27T09:20:51.991Z,4.33
2018-06-27T09:23:20.880Z,5.03
2018-06-27T09:25:49.327Z,5.37
2018-06-27T09:28:18.292Z,4.83
2018-06-27T09:30:46.640Z,6.27
2018-06-27T09:33:15.654Z,6.50
2018-06-27T09:35:44.835Z,6.10
2018-06-27T09:38:13.352Z,5.67
2018-06-27T09:40:42.406Z,4.90
2018-06-27T09:43:11.905Z,6.13
2018-06-27T09:45:40.272Z,5.37
2018-06-27T09:48:08.778Z,4.33
2018-06-27T09:50:37.279Z,12.20
2018-06-27T09:53:05.859Z,12.37
2018-06-27T09:55:34.359Z,10.33
2018-06-27T09:58:02.789Z,6.43
2018-06-27T10:00:36.396Z,9.90
2018-06-27T10:03:04.773Z,5.40
2018-06-27T10:05:33.435Z,8.57
2018-06-27T10:08:01.787Z,8.63
2018-06-27T10:10:29.899Z,6.47
2018-06-27T10:12:58.324Z,4.60
2018-06-27T10:15:28.152Z,6.00
2018-06-27T10:17:57.378Z,4.10
2018-06-27T10:20:25.772Z,5.73
2018-06-27T10:22:54.171Z,8.27
2018-06-27T10:25:22.644Z,5.27
2018-06-27T10:27:51.254Z,5.07
2018-06-27T10:30:19.343Z,5.33
2018-06-27T10:32:47.702Z,4.73
2018-06-27T10:35:15.772Z,5.37
2018-06-27T10:37:43.842Z,6.80
2018-06-27T10:40:12.999Z,3.63
2018-06-27T10:42:41.431Z,3.97
2018-06-27T10:45:09.867Z,3.10
2018-06-27T10:47:38.384Z,4.33
2018-06-27T10:50:06.857Z,3.40
2018-06-27T10:52:35.241Z,3.83
2018-06-27T10:55:07.927Z,7.40
2018-06-27T10:57:36.328Z,5.30
2018-06-27T11:00:05.004Z,3.33
2018-06-27T11:02:33.396Z,3.93
2018-06-27T11:05:01.804Z,4.77
2018-06-27T11:07:30.185Z,4.77
2018-06-27T11:09:59.187Z,3.87
2018-06-27T11:12:27.564Z,2.93
2018-06-27T11:14:56.158Z,3.47
2018-06-27T11:17:24.661Z,2.87
2018-06-27T11:19:53.367Z,3.17
2018-06-27T11:22:22.372Z,4.37
2018-06-27T11:24:50.722Z,3.87
2018-06-27T11:27:18.806Z,4.53
2018-06-27T11:29:47.896Z,3.77
2018-06-27T11:32:16.955Z,3.47
2018-06-27T11:34:45.370Z,4.47
2018-06-27T11:37:14.814Z,3.40
2018-06-27T11:39:43.224Z,3.77
2018-06-27T11:42:11.689Z,4.87
2018-06-27T11:44:40.129Z,4.20
2018-06-27T11:47:08.502Z,5.57
2018-06-27T11:49:36.925Z,4.17
2018-06-27T11:52:05.293Z,3.43
2018-06-27T11:54:33.839Z,3.13
2018-06-27T11:57:02.250Z,3.60
2018-06-27T11:59:30.754Z,2.67
2018-06-27T12:01:59.025Z,3.07
2018-06-27T12:04:27.446Z,3.07
2018-06-27T12:06:55.827Z,3.40
2018-06-27T12:09:24.303Z,2.53
2018-06-27T12:11:52.650Z,2.10
2018-06-27T12:14:20.787Z,3.60
2018-06-27T12:16:49.251Z,2.57
2018-06-27T12:19:17.593Z,2.70
2018-06-27T12:21:46.155Z,4.60
2018-06-27T12:24:14.218Z,3.13
2018-06-27T12:26:42.576Z,1.90
2018-06-27T12:29:10.911Z,2.10
2018-06-27T12:31:39.435Z,2.00
2018-06-27T12:34:07.937Z,2.40
2018-06-27T12:36:36.310Z,2.37
2018-06-27T12:39:07.295Z,2.23
2018-06-27T12:41:35.656Z,2.67
2018-06-27T12:44:04.071Z,3.57
2018-06-27T12:46:32.426Z,3.47
2018-06-27T12:49:00.873Z,2.80
2018-06-27T12:51:28.942Z,2.30
2018-06-27T12:53:57.005Z,2.50
2018-06-27T12:56:25.408Z,4.07
2018-06-27T12:58:53.786Z,2.53
2018-06-27T13:01:22.208Z,2.27
2018-06-27T13:03:50.585Z,3.00
2018-06-27T13:06:18.933Z,3.63
2018-06-27T13:08:47.561Z,2.20
2018-06-27T13:11:15.972Z,2.80
2018-06-27T13:13:44.305Z,2.87
2018-06-27T13:16:12.724Z,2.90
2018-06-27T13:18:40.805Z,1.60
2018-06-27T13:21:08.909Z,1.73
2018-06-27T13:23:37.309Z,2.43
2018-06-27T13:26:06.994Z,2.23
2018-06-27T13:28:35.406Z,2.80
2018-06-27T13:31:03.787Z,1.70
2018-06-27T13:33:32.189Z,5.80
2018-06-27T13:36:00.537Z,7.63
2018-06-27T13:38:28.912Z,6.60
2018-06-27T13:40:57.268Z,7.07
2018-06-27T13:43:25.652Z,2.43
2018-06-27T13:45:54.022Z,2.40
2018-06-27T13:48:22.485Z,6.50
2018-06-27T13:50:50.855Z,8.37
2018-06-27T13:53:19.210Z,4.70
2018-06-27T13:55:47.268Z,5.43
2018-06-27T13:58:15.613Z,2.80
2018-06-27T14:00:43.958Z,4.67
2018-06-27T14:03:12.353Z,3.87
2018-06-27T14:05:40.752Z,2.47
2018-06-27T14:08:09.129Z,4.93
2018-06-27T14:10:37.532Z,5.27
2018-06-27T14:13:05.957Z,3.70
2018-06-27T14:15:34.346Z,3.47
2018-06-27T14:18:02.724Z,2.40
2018-06-27T14:20:31.067Z,3.27
2018-06-27T14:22:59.472Z,2.00
2018-06-27T14:25:27.824Z,3.30
2018-06-27T14:27:56.229Z,2.27
2018-06-27T14:30:24.579Z,4.23
2018-06-27T14:32:52.773Z,3.03
2018-06-27T14:35:20.891Z,1.80
2018-06-27T14:37:49.300Z,4.57
2018-06-27T14:40:17.637Z,2.87
2018-06-27T14:42:46.003Z,2.27
2018-06-27T14:45:14.378Z,2.13
2018-06-27T14:47:42.748Z,3.70
2018-06-27T14:50:11.117Z,2.97
2018-06-27T14:52:39.472Z,3.33
2018-06-27T14:55:09.038Z,3.10
2018-06-27T14:57:37.739Z,2.27
2018-06-27T15:00:07.582Z,3.90
2018-06-27T15:02:35.930Z,2.47
2018-06-27T15:05:04.415Z,3.40
2018-06-27T15:07:33.078Z,2.17
2018-06-27T15:10:01.447Z,2.07
2018-06-27T15:12:30.208Z,1.80
2018-06-27T15:14:58.576Z,3.37
2018-06-27T15:17:26.993Z,4.00
2018-06-27T15:19:55.376Z,2.93
2018-06-27T15:22:23.739Z,3.53
2018-06-27T15:24:52.148Z,2.97
2018-06-27T15:27:20.496Z,2.60
2018-06-27T15:29:55.394Z,3.87
2018-06-27T15:32:23.832Z,3.70
2018-06-27T15:34:52.175Z,3.03
2018-06-27T15:37:20.575Z,2.97
2018-06-27T15:39:48.972Z,2.37
2018-06-27T15:42:17.403Z,2.20
2018-06-27T15:44:45.791Z,2.20
2018-06-27T15:47:14.161Z,2.70
2018-06-27T15:49:42.614Z,2.73
2018-06-27T15:52:11.030Z,2.50
2018-06-27T15:54:39.494Z,2.67
2018-06-27T15:57:07.872Z,2.70
2018-06-27T15:59:36.301Z,2.37
2018-06-27T16:02:04.399Z,2.20
2018-06-27T16:04:32.763Z,3.17
2018-06-27T16:07:00.835Z,2.70
2018-06-27T16:09:29.211Z,2.87
2018-06-27T16:11:57.570Z,2.00
2018-06-27T16:14:25.954Z,3.03
2018-06-27T16:16:54.230Z,2.93
2018-06-27T16:19:22.203Z,3.03
2018-06-27T16:21:50.366Z,3.07
2018-06-27T16:24:18.451Z,3.23
2018-06-27T16:26:46.514Z,3.53
2018-06-27T16:29:14.585Z,2.73
2018-06-27T16:31:43.305Z,2.97
2018-06-27T16:34:11.701Z,2.30
2018-06-27T16:36:40.067Z,2.40
2018-06-27T16:39:09.841Z,2.53
2018-06-27T16:41:38.431Z,3.17
2018-06-27T16:44:06.631Z,2.33
2018-06-27T16:46:35.022Z,2.03
2018-06-27T16:49:03.478Z,3.90
2018-06-27T16:51:32.101Z,2.60
2018-06-27T16:53:59.985Z,3.07
2018-06-27T16:56:28.354Z,2.30
2018-06-27T16:58:56.720Z,3.57
2018-06-27T17:01:25.299Z,3.33
2018-06-27T17:03:53.474Z,2.30
2018-06-27T17:06:21.883Z,4.03
2018-06-27T17:08:50.193Z,2.30
2018-06-27T17:11:18.635Z,2.70
2018-06-27T17:13:47.016Z,2.30
2018-06-27T17:16:15.372Z,2.90
2018-06-27T17:18:43.852Z,3.50
2018-06-27T17:21:12.246Z,2.60
2018-06-27T17:23:40.719Z,2.90
2018-06-27T17:26:09.135Z,2.10
2018-06-27T17:28:37.521Z,3.47
2018-06-27T17:31:05.852Z,2.07
2018-06-27T17:33:34.233Z,2.23
2018-06-27T17:36:02.619Z,2.10
2018-06-27T17:38:31.015Z,4.57
2018-06-27T17:40:59.169Z,3.53
2018-06-27T17:43:27.530Z,2.53
2018-06-27T17:45:55.900Z,1.80
2018-06-27T17:48:24.260Z,2.20
2018-06-27T17:50:52.674Z,3.87
2018-06-27T17:53:21.097Z,2.37
2018-06-27T17:55:49.502Z,2.33
2018-06-27T17:58:17.928Z,3.07
2018-06-27T18:00:46.034Z,2.20
2018-06-27T18:03:14.413Z,2.20
2018-06-27T18:05:42.809Z,2.10
2018-06-27T18:08:11.203Z,3.20
2018-06-27T18:10:39.590Z,2.93
2018-06-27T18:13:07.960Z,3.83
2018-06-27T18:15:36.344Z,4.03
2018-06-27T18:18:04.761Z,2.63
2018-06-27T18:20:33.153Z,2.30
2018-06-27T18:23:01.597Z,2.70
2018-06-27T18:25:30.015Z,4.93
2018-06-27T18:27:58.448Z,3.77
2018-06-27T18:30:26.814Z,2.50
2018-06-27T18:32:55.183Z,2.67
2018-06-27T18:35:23.559Z,2.83
2018-06-27T18:37:51.956Z,2.20
2018-06-27T18:40:20.337Z,2.77
2018-06-27T18:42:48.747Z,2.77
2018-06-27T18:45:17.142Z,3.17
2018-06-27T18:47:45.540Z,2.40
2018-06-27T18:50:13.899Z,3.03
2018-06-27T18:52:42.232Z,2.53
2018-06-27T18:55:10.608Z,2.57
2018-06-27T18:57:38.712Z,2.53
2018-06-27T19:00:08.686Z,2.33
2018-06-27T19:02:37.156Z,2.50
2018-06-27T19:05:06.057Z,2.40
2018-06-27T19:07:34.483Z,2.30
2018-06-27T19:10:03.216Z,3.03
2018-06-27T19:12:31.656Z,2.60
2018-06-27T19:15:00.060Z,3.17
2018-06-27T19:17:28.475Z,4.73
2018-06-27T19:19:56.645Z,3.13
2018-06-27T19:22:24.721Z,3.37
2018-06-27T19:24:52.792Z,5.10
2018-06-27T19:27:20.859Z,4.73
2018-06-27T19:29:49.025Z,3.93
2018-06-27T19:32:17.385Z,3.20
2018-06-27T19:34:45.737Z,3.03
2018-06-27T19:37:14.109Z,2.43
2018-06-27T19:39:42.465Z,2.20
2018-06-27T19:42:10.851Z,3.23
2018-06-27T19:44:39.212Z,3.83
2018-06-27T19:47:07.603Z,2.57
2018-06-27T19:49:36.036Z,2.73
2018-06-27T19:52:04.384Z,3.03
2018-06-27T19:54:32.795Z,2.83
2018-06-27T19:57:01.196Z,2.40
2018-06-27T19:59:29.547Z,3.03
2018-06-27T20:01:57.920Z,3.37
2018-06-27T20:04:26.265Z,2.63
2018-06-27T20:06:54.716Z,3.30
2018-06-27T20:09:23.095Z,3.40
2018-06-27T20:11:51.496Z,3.03
2018-06-27T20:14:20.229Z,3.47
2018-06-27T20:16:48.597Z,3.13
2018-06-27T20:19:17.192Z,3.67
2018-06-27T20:21:45.099Z,3.17
2018-06-27T20:24:13.477Z,3.53
2018-06-27T20:26:41.891Z,2.63
2018-06-27T20:29:10.284Z,3.67
2018-06-27T20:31:38.709Z,3.33
2018-06-27T20:34:07.072Z,3.37
2018-06-27T20:36:35.467Z,3.40
2018-06-27T20:39:06.208Z,4.60
2018-06-27T20:41:34.567Z,6.37
2018-06-27T20:44:03.269Z,5.40
2018-06-27T20:46:31.647Z,5.07
2018-06-27T20:49:00.036Z,5.77
2018-06-27T20:51:29.079Z,5.50
2018-06-27T20:53:57.159Z,4.67
2018-06-27T20:56:25.331Z,5.03
2018-06-27T20:58:53.781Z,5.03
2018-06-27T21:01:22.178Z,4.40
2018-06-27T21:03:50.659Z,4.03
2018-06-27T21:06:19.065Z,3.93
2018-06-27T21:08:47.481Z,3.77
2018-06-27T21:11:15.868Z,3.83
2018-06-27T21:13:44.252Z,4.00
2018-06-27T21:16:12.666Z,3.17
2018-06-27T21:18:41.091Z,4.03
2018-06-27T21:21:09.509Z,4.20
2018-06-27T21:23:37.893Z,4.30
2018-06-27T21:26:06.105Z,5.10
2018-06-27T21:28:34.396Z,3.80
2018-06-27T21:31:02.744Z,4.70
2018-06-27T21:33:32.227Z,4.03
2018-06-27T21:36:00.299Z,5.23
2018-06-27T21:38:28.393Z,5.50
2018-06-27T21:40:56.744Z,4.33
2018-06-27T21:43:24.902Z,4.63
2018-06-27T21:45:53.359Z,3.57
2018-06-27T21:48:21.798Z,4.53
2018-06-27T21:50:50.229Z,4.13
2018-06-27T21:53:18.603Z,5.10
2018-06-27T21:55:47.002Z,4.03
2018-06-27T21:58:15.054Z,3.83
2018-06-27T22:00:43.426Z,4.70
2018-06-27T22:03:11.752Z,4.07
2018-06-27T22:05:40.154Z,3.77
2018-06-27T22:08:08.507Z,3.50
2018-06-27T22:10:37.157Z,3.83
2018-06-27T22:13:05.272Z,3.80
2018-06-27T22:15:33.648Z,3.43
2018-06-27T22:18:02.090Z,3.90
2018-06-27T22:20:30.144Z,3.50
2018-06-27T22:22:58.469Z,4.47
2018-06-27T22:25:27.062Z,3.60
2018-06-27T22:27:55.444Z,4.23
2018-06-27T22:30:23.845Z,3.67
2018-06-27T22:32:52.225Z,3.73
2018-06-27T22:35:20.616Z,4.93
2018-06-27T22:37:48.972Z,3.67
2018-06-27T22:40:17.385Z,3.50
2018-06-27T22:42:45.684Z,4.37
2018-06-27T22:45:14.049Z,4.10
2018-06-27T22:47:42.086Z,3.33
2018-06-27T22:50:10.455Z,3.87
2018-06-27T22:52:38.862Z,3.40
2018-06-27T22:55:07.259Z,4.03
2018-06-27T22:57:35.434Z,3.47
2018-06-27T23:00:03.879Z,3.73
2018-06-27T23:02:32.274Z,4.20
2018-06-27T23:05:00.631Z,4.60
2018-06-27T23:07:29.034Z,4.87
2018-06-27T23:10:00.363Z,4.67
2018-06-27T23:12:28.962Z,4.30
2018-06-27T23:14:57.339Z,5.10
2018-06-27T23:17:25.711Z,4.10
2018-06-27T23:19:54.086Z,4.60
2018-06-27T23:22:33.812Z,4.97
2018-06-27T23:25:02.299Z,4.47
2018-06-27T23:27:30.673Z,4.60
2018-06-27T23:29:59.059Z,4.37
2018-06-27T23:32:27.424Z,4.67
2018-06-27T23:34:56.041Z,3.33
2018-06-27T23:37:24.599Z,3.93
2018-06-27T23:39:52.940Z,4.97
2018-06-27T23:42:21.354Z,4.53
2018-06-27T23:44:49.740Z,4.30
2018-06-27T23:47:18.079Z,3.30
2018-06-27T23:49:46.887Z,5.57
2018-06-27T23:52:15.235Z,3.60
2018-06-27T23:54:43.632Z,3.97
2018-06-27T23:57:12.249Z,4.87
2018-06-27T23:59:40.715Z,4.27
